Time;durP1;ratioP1;P1;durP2;ratioP2;P2;SDS_P1;SDS_P2;PMS_P1;PMS_P2;Temp;Humidity;BMP_temperature;BMP_pressure;BME280_temperature;BME280_humidity;BME280_pressure;Samples;Min_cycle;Max_cycle;Signal;HPM_P1;HPM_P2
2022/10/22 00:01:54;;;;;;;;;1.00;1.00;;;;;;;;5096698;27;45625;-65
2022/10/22 00:04:19;;;;;;;;;2.00;0.25;;;;;;;;5095214;27;45771;-66
2022/10/22 00:06:45;;;;;;;;;2.33;2.00;;;;;;;;5075616;27;45864;-64
2022/10/22 00:09:11;;;;;;;;;1.00;0.00;;;;;;;;5088456;27;45515;-65
2022/10/22 00:11:36;;;;;;;;;1.00;1.00;;;;;;;;5100514;27;45865;-65
2022/10/22 00:14:01;;;;;;;;;1.67;1.67;;;;;;;;5105842;27;46553;-65
2022/10/22 00:16:27;;;;;;;;;0.75;0.00;;;;;;;;5106294;27;45805;-66
2022/10/22 00:18:52;;;;;;;;;2.75;1.50;;;;;;;;5104825;27;45610;-66
2022/10/22 00:21:17;;;;;;;;;2.00;0.00;;;;;;;;5094394;27;45420;-64
2022/10/22 00:23:42;;;;;;;;;1.00;1.00;;;;;;;;5100581;27;45412;-65
2022/10/22 00:26:08;;;;;;;;;1.00;1.00;;;;;;;;5102262;27;45496;-64
2022/10/22 00:28:33;;;;;;;;;1.00;1.00;;;;;;;;5101416;27;45715;-66
2022/10/22 00:30:59;;;;;;;;;1.67;0.00;;;;;;;;5101835;27;45774;-66
2022/10/22 00:33:25;;;;;;;;;0.00;0.00;;;;;;;;5104129;27;45372;-66
2022/10/22 00:35:51;;;;;;;;;0.67;0.00;;;;;;;;5107313;27;45392;-68
2022/10/22 00:38:16;;;;;;;;;1.67;1.00;;;;;;;;5095242;27;45403;-66
2022/10/22 00:40:41;;;;;;;;;2.00;1.00;;;;;;;;5102508;27;45230;-66
2022/10/22 00:43:10;;;;;;;;;0.67;0.67;;;;;;;;5108944;27;45794;-66
2022/10/22 00:45:35;;;;;;;;;1.33;1.00;;;;;;;;5112914;27;45410;-74
2022/10/22 00:48:03;;;;;;;;;2.67;1.00;;;;;;;;5107764;27;45314;-72
2022/10/22 00:50:31;;;;;;;;;1.00;1.00;;;;;;;;5085980;27;45532;-74
2022/10/22 00:52:57;;;;;;;;;1.25;0.50;;;;;;;;5081074;27;46386;-73
2022/10/22 00:55:23;;;;;;;;;2.33;0.67;;;;;;;;5097013;27;45657;-73
2022/10/22 00:57:49;;;;;;;;;2.33;1.33;;;;;;;;5084748;27;45653;-74
2022/10/22 01:00:15;;;;;;;;;1.33;0.33;;;;;;;;5091392;27;45363;-74
2022/10/22 01:02:40;;;;;;;;;2.00;1.33;;;;;;;;5088626;27;45732;-73
2022/10/22 01:05:06;;;;;;;;;1.00;1.00;;;;;;;;5084910;27;45392;-74
2022/10/22 01:07:40;;;;;;;;;1.00;1.00;;;;;;;;5081863;27;45480;-74
2022/10/22 01:10:26;;;;;;;;;3.00;2.00;;;;;;;;5088223;27;45384;-73
2022/10/22 01:12:57;;;;;;;;;2.00;1.00;;;;;;;;5051011;27;45416;-72
2022/10/22 01:15:22;;;;;;;;;5.33;1.00;;;;;;;;5098672;27;45405;-72
2022/10/22 01:17:47;;;;;;;;;1.67;0.67;;;;;;;;5074888;27;45701;-72
2022/10/22 01:20:28;;;;;;;;;0.67;0.67;;;;;;;;5094756;27;45745;-71
2022/10/22 01:23:12;;;;;;;;;1.00;1.00;;;;;;;;5096638;27;47260;-72
2022/10/22 01:25:42;;;;;;;;;0.00;0.00;;;;;;;;5108148;27;45790;-73
2022/10/22 01:28:26;;;;;;;;;2.67;1.00;;;;;;;;5088428;27;45486;-73
2022/10/22 01:30:55;;;;;;;;;0.75;0.75;;;;;;;;5095506;27;45360;-74
2022/10/22 01:33:22;;;;;;;;;1.50;0.00;;;;;;;;5085054;27;47039;-72
2022/10/22 01:35:47;;;;;;;;;1.00;1.00;;;;;;;;5101341;27;45768;-73
2022/10/22 01:38:19;;;;;;;;;0.00;0.00;;;;;;;;5097959;27;45819;-72
2022/10/22 01:40:45;;;;;;;;;1.00;1.00;;;;;;;;5107934;27;45367;-73
2022/10/22 01:43:10;;;;;;;;;0.00;0.00;;;;;;;;5101553;27;45775;-72
2022/10/22 01:45:38;;;;;;;;;0.25;0.00;;;;;;;;5100163;27;45462;-72
2022/10/22 01:48:03;;;;;;;;;0.50;0.00;;;;;;;;5105664;27;45751;-73
2022/10/22 01:50:38;;;;;;;;;1.75;1.50;;;;;;;;5105080;27;45465;-74
2022/10/22 01:53:03;;;;;;;;;0.75;0.00;;;;;;;;5107880;27;46414;-74
2022/10/22 01:55:40;;;;;;;;;1.00;1.00;;;;;;;;5044426;28;45643;-73
2022/10/22 01:58:29;;;;;;;;;3.00;0.00;;;;;;;;4911322;28;45330;-70
2022/10/22 02:00:59;;;;;;;;;0.00;0.00;;;;;;;;4942401;28;45606;-70
2022/10/22 02:03:32;;;;;;;;;0.00;0.00;;;;;;;;4958771;28;45316;-71
2022/10/22 02:06:00;;;;;;;;;1.00;1.00;;;;;;;;5027442;28;47070;-73
2022/10/22 02:08:31;;;;;;;;;0.00;0.00;;;;;;;;5012708;28;45751;-73
2022/10/22 02:10:57;;;;;;;;;2.75;1.00;;;;;;;;4925718;28;45383;-73
2022/10/22 02:13:49;;;;;;;;;1.00;1.00;;;;;;;;4921326;28;45829;-72
2022/10/22 02:16:27;;;;;;;;;0.00;0.00;;;;;;;;4924612;28;47247;-72
2022/10/22 02:18:53;;;;;;;;;4.00;1.00;;;;;;;;4937910;28;45292;-74
2022/10/22 02:21:19;;;;;;;;;2.00;0.25;;;;;;;;4940874;28;45452;-71
2022/10/22 02:23:45;;;;;;;;;3.00;1.00;;;;;;;;4923512;28;45347;-72
2022/10/22 02:26:15;;;;;;;;;1.00;1.00;;;;;;;;4924633;28;45666;-73
2022/10/22 02:29:10;;;;;;;;;0.75;0.75;;;;;;;;4948492;28;45448;-72
2022/10/22 02:31:37;;;;;;;;;1.50;0.75;;;;;;;;4928777;28;45881;-71
2022/10/22 02:34:07;;;;;;;;;0.00;0.00;;;;;;;;4962453;28;45666;-73
2022/10/22 02:36:33;;;;;;;;;2.00;0.75;;;;;;;;4922016;28;47088;-73
2022/10/22 02:38:59;;;;;;;;;1.00;1.00;;;;;;;;4928383;28;45742;-72
2022/10/22 02:41:24;;;;;;;;;0.50;0.00;;;;;;;;4922962;28;45471;-72
2022/10/22 02:43:52;;;;;;;;;4.50;0.75;;;;;;;;4920021;28;45833;-74
2022/10/22 02:46:17;;;;;;;;;2.00;0.00;;;;;;;;4915843;28;45703;-72
2022/10/22 02:48:43;;;;;;;;;1.00;1.00;;;;;;;;4989288;28;45778;-73
2022/10/22 02:51:08;;;;;;;;;2.75;1.00;;;;;;;;4924429;28;45646;-71
2022/10/22 02:53:33;;;;;;;;;4.00;1.00;;;;;;;;4955129;28;45710;-71
2022/10/22 02:55:58;;;;;;;;;2.25;0.25;;;;;;;;4924968;28;45631;-73
2022/10/22 02:58:24;;;;;;;;;0.00;0.00;;;;;;;;4939404;28;45323;-71
2022/10/22 03:00:49;;;;;;;;;1.50;0.75;;;;;;;;4926726;28;45695;-71
2022/10/22 03:03:14;;;;;;;;;1.25;0.00;;;;;;;;4921158;28;45341;-72
2022/10/22 03:05:40;;;;;;;;;0.00;0.00;;;;;;;;4981414;28;46123;-72
2022/10/22 03:08:05;;;;;;;;;3.00;1.25;;;;;;;;4925206;28;45723;-73
2022/10/22 03:10:30;;;;;;;;;4.00;0.00;;;;;;;;4978768;28;45651;-72
2022/10/22 03:12:55;;;;;;;;;0.00;0.00;;;;;;;;4905637;28;45742;-72
2022/10/22 03:15:21;;;;;;;;;0.75;0.75;;;;;;;;4910764;28;45958;-71
2022/10/22 03:17:46;;;;;;;;;1.00;1.00;;;;;;;;5004284;28;45837;-72
2022/10/22 03:20:11;;;;;;;;;1.00;1.00;;;;;;;;4928686;28;45674;-73
2022/10/22 03:22:39;;;;;;;;;1.75;0.00;;;;;;;;4904315;28;46146;-72
2022/10/22 03:25:06;;;;;;;;;0.50;0.50;;;;;;;;4905246;28;45705;-73
2022/10/22 03:27:34;;;;;;;;;0.75;0.75;;;;;;;;4913487;28;46312;-72
2022/10/22 03:29:59;;;;;;;;;0.25;0.00;;;;;;;;4912332;28;45428;-72
2022/10/22 03:32:25;;;;;;;;;3.00;1.25;;;;;;;;4912193;28;45689;-72
2022/10/22 03:34:50;;;;;;;;;0.50;0.50;;;;;;;;4913600;28;45772;-71
2022/10/22 03:37:15;;;;;;;;;3.00;1.00;;;;;;;;4905565;28;45724;-73
2022/10/22 03:39:41;;;;;;;;;2.00;0.75;;;;;;;;4910013;28;45815;-73
2022/10/22 03:42:06;;;;;;;;;1.00;1.00;;;;;;;;5011127;28;45512;-72
2022/10/22 03:44:32;;;;;;;;;0.75;0.75;;;;;;;;4912998;28;45661;-71
2022/10/22 03:46:57;;;;;;;;;0.50;0.50;;;;;;;;4912614;28;45782;-70
2022/10/22 03:49:23;;;;;;;;;2.50;1.00;;;;;;;;4906308;28;45308;-72
2022/10/22 03:51:48;;;;;;;;;0.00;0.00;;;;;;;;4932455;28;45617;-70
2022/10/22 03:54:14;;;;;;;;;1.00;0.25;;;;;;;;4985911;28;46433;-73
2022/10/22 03:56:40;;;;;;;;;3.25;1.50;;;;;;;;5005803;28;46058;-71
2022/10/22 03:59:05;;;;;;;;;2.00;1.00;;;;;;;;4913913;28;45467;-72
2022/10/22 04:01:30;;;;;;;;;2.33;1.00;;;;;;;;4909576;28;45556;-70
2022/10/22 04:03:56;;;;;;;;;1.00;1.00;;;;;;;;4905322;28;45817;-72
2022/10/22 04:06:21;;;;;;;;;2.75;0.75;;;;;;;;4921584;28;45433;-72
2022/10/22 04:08:47;;;;;;;;;3.00;0.25;;;;;;;;4962965;28;45540;-72
2022/10/22 04:11:13;;;;;;;;;0.25;0.00;;;;;;;;4979441;28;45358;-71
2022/10/22 04:13:38;;;;;;;;;2.00;1.00;;;;;;;;4906018;28;46365;-72
2022/10/22 04:16:09;;;;;;;;;2.00;0.50;;;;;;;;4909932;28;45647;-71
2022/10/22 04:18:35;;;;;;;;;0.25;0.25;;;;;;;;4895882;28;45789;-70
2022/10/22 04:21:00;;;;;;;;;0.75;0.50;;;;;;;;4948152;28;45779;-71
2022/10/22 04:23:25;;;;;;;;;2.25;1.00;;;;;;;;4909007;28;46163;-72
2022/10/22 04:25:56;;;;;;;;;4.50;1.25;;;;;;;;4900320;28;45775;-72
2022/10/22 04:28:21;;;;;;;;;2.00;1.00;;;;;;;;4923256;28;45320;-75
2022/10/22 04:30:47;;;;;;;;;1.00;0.00;;;;;;;;4902371;28;45725;-71
2022/10/22 04:33:12;;;;;;;;;0.75;0.00;;;;;;;;4902101;28;45785;-71
2022/10/22 04:35:38;;;;;;;;;3.00;1.00;;;;;;;;4905524;28;45623;-71
2022/10/22 04:38:03;;;;;;;;;2.00;2.00;;;;;;;;4895957;28;45643;-70
2022/10/22 04:40:29;;;;;;;;;2.00;1.00;;;;;;;;4901259;28;45367;-73
2022/10/22 04:42:54;;;;;;;;;1.00;0.67;;;;;;;;4903498;28;45981;-73
2022/10/22 04:45:19;;;;;;;;;2.75;1.00;;;;;;;;4910919;28;45410;-71
2022/10/22 04:47:44;;;;;;;;;4.50;1.00;;;;;;;;4903613;28;45729;-72
2022/10/22 04:50:10;;;;;;;;;4.00;1.00;;;;;;;;4906119;28;45726;-71
2022/10/22 04:52:36;;;;;;;;;2.50;1.00;;;;;;;;4896636;28;45867;-72
2022/10/22 04:55:01;;;;;;;;;5.00;3.33;;;;;;;;4910054;28;45554;-70
2022/10/22 04:57:30;;;;;;;;;2.50;2.00;;;;;;;;4905211;28;45436;-72
2022/10/22 04:59:55;;;;;;;;;1.00;0.25;;;;;;;;4900684;28;45566;-72
2022/10/22 05:02:20;;;;;;;;;3.00;1.00;;;;;;;;4908072;28;45392;-72
2022/10/22 05:04:45;;;;;;;;;1.75;0.00;;;;;;;;4907627;28;45286;-71
2022/10/22 05:07:11;;;;;;;;;2.00;2.00;;;;;;;;4899501;28;45599;-69
2022/10/22 05:09:36;;;;;;;;;2.00;2.00;;;;;;;;4900631;28;45959;-72
2022/10/22 05:12:01;;;;;;;;;1.00;1.00;;;;;;;;4899237;28;46178;-72
2022/10/22 05:14:26;;;;;;;;;4.25;1.50;;;;;;;;4901408;28;45347;-72
2022/10/22 05:16:52;;;;;;;;;0.25;0.25;;;;;;;;4905093;28;45772;-72
2022/10/22 05:19:35;;;;;;;;;2.75;1.00;;;;;;;;4904336;28;45803;-71
2022/10/22 05:22:03;;;;;;;;;0.75;0.75;;;;;;;;4903004;28;45391;-72
2022/10/22 05:24:29;;;;;;;;;1.00;1.00;;;;;;;;4915296;28;45749;-72
2022/10/22 05:26:55;;;;;;;;;3.00;0.00;;;;;;;;4911715;28;45269;-71
2022/10/22 05:29:21;;;;;;;;;0.00;0.00;;;;;;;;4907020;28;46132;-71
2022/10/22 05:31:46;;;;;;;;;3.25;1.50;;;;;;;;4908529;28;45354;-72
2022/10/22 05:34:11;;;;;;;;;3.50;1.00;;;;;;;;4919631;28;45735;-72
2022/10/22 05:36:37;;;;;;;;;0.00;0.00;;;;;;;;4895599;28;45769;-71
2022/10/22 05:39:03;;;;;;;;;1.00;0.00;;;;;;;;4899857;28;45571;-72
2022/10/22 05:41:28;;;;;;;;;3.00;0.50;;;;;;;;4896422;28;46037;-71
2022/10/22 05:43:57;;;;;;;;;1.50;0.00;;;;;;;;4909555;28;45437;-75
2022/10/22 05:46:23;;;;;;;;;3.00;1.00;;;;;;;;4908786;28;45781;-72
2022/10/22 05:48:59;;;;;;;;;2.25;0.75;;;;;;;;4901671;28;46230;-72
2022/10/22 05:51:25;;;;;;;;;2.00;1.25;;;;;;;;4906394;28;45733;-71
2022/10/22 05:53:52;;;;;;;;;1.00;0.00;;;;;;;;4913614;28;45541;-71
2022/10/22 05:56:17;;;;;;;;;1.75;1.25;;;;;;;;4951631;28;45741;-70
2022/10/22 05:58:43;;;;;;;;;1.00;1.00;;;;;;;;4911233;28;45574;-72
2022/10/22 06:01:11;;;;;;;;;5.25;1.00;;;;;;;;4903301;28;45504;-70
2022/10/22 06:03:37;;;;;;;;;3.50;1.00;;;;;;;;4901426;28;45850;-72
2022/10/22 06:06:06;;;;;;;;;1.75;0.25;;;;;;;;4913080;28;45322;-71
2022/10/22 06:08:32;;;;;;;;;0.75;0.75;;;;;;;;4912003;28;45510;-71
2022/10/22 06:10:57;;;;;;;;;2.00;1.00;;;;;;;;4911464;28;46218;-71
2022/10/22 06:13:22;;;;;;;;;2.00;1.00;;;;;;;;4901095;28;45874;-73
2022/10/22 06:15:49;;;;;;;;;2.00;2.00;;;;;;;;4922459;28;45757;-74
2022/10/22 06:18:14;;;;;;;;;1.00;1.00;;;;;;;;4894311;28;46230;-72
2022/10/22 06:20:42;;;;;;;;;4.75;2.00;;;;;;;;4934498;28;46114;-73
2022/10/22 06:23:07;;;;;;;;;2.00;0.25;;;;;;;;4906800;28;45339;-73
2022/10/22 06:25:32;;;;;;;;;1.25;1.25;;;;;;;;4894989;28;45612;-72
2022/10/22 06:27:57;;;;;;;;;1.75;1.75;;;;;;;;4902812;28;45420;-71
2022/10/22 06:30:23;;;;;;;;;3.25;1.75;;;;;;;;4907412;28;46243;-74
2022/10/22 06:32:48;;;;;;;;;2.00;1.25;;;;;;;;4904429;28;45585;-71
2022/10/22 06:35:13;;;;;;;;;2.00;1.00;;;;;;;;4898474;28;45660;-71
2022/10/22 06:37:38;;;;;;;;;0.75;0.75;;;;;;;;4898221;28;45490;-72
2022/10/22 06:40:04;;;;;;;;;0.50;0.50;;;;;;;;4896289;28;46213;-71
2022/10/22 06:42:29;;;;;;;;;2.00;2.00;;;;;;;;4896642;28;45830;-72
2022/10/22 06:44:54;;;;;;;;;1.25;0.50;;;;;;;;4894796;28;45693;-74
2022/10/22 06:47:20;;;;;;;;;1.50;1.00;;;;;;;;4921715;28;45867;-72
2022/10/22 06:49:45;;;;;;;;;3.50;2.00;;;;;;;;4903909;28;45782;-71
2022/10/22 06:52:11;;;;;;;;;2.00;2.00;;;;;;;;4899308;28;47084;-72
2022/10/22 06:54:36;;;;;;;;;1.50;1.50;;;;;;;;4899114;28;45533;-72
2022/10/22 06:57:01;;;;;;;;;2.50;1.00;;;;;;;;4970463;28;45489;-72
2022/10/22 06:59:27;;;;;;;;;9.50;1.75;;;;;;;;4898963;28;46633;-72
2022/10/22 07:01:52;;;;;;;;;4.50;2.75;;;;;;;;4909181;28;45722;-72
2022/10/22 07:04:17;;;;;;;;;3.25;1.75;;;;;;;;4900069;28;45444;-73
2022/10/22 07:06:42;;;;;;;;;3.25;1.50;;;;;;;;4937816;28;46138;-72
2022/10/22 07:09:08;;;;;;;;;1.00;1.00;;;;;;;;4901362;28;45836;-73
2022/10/22 07:11:39;;;;;;;;;2.00;1.00;;;;;;;;4905628;28;45472;-72
2022/10/22 07:14:04;;;;;;;;;2.00;1.00;;;;;;;;4913237;28;45821;-72
2022/10/22 07:16:29;;;;;;;;;1.00;1.00;;;;;;;;4900694;28;45633;-72
2022/10/22 07:18:54;;;;;;;;;0.00;0.00;;;;;;;;4904319;28;46071;-70
2022/10/22 07:21:20;;;;;;;;;2.50;1.00;;;;;;;;4909014;28;45699;-72
2022/10/22 07:23:46;;;;;;;;;6.50;1.75;;;;;;;;4900767;28;45712;-73
2022/10/22 07:26:16;;;;;;;;;3.75;2.00;;;;;;;;4897419;28;45454;-74
2022/10/22 07:28:41;;;;;;;;;1.00;1.00;;;;;;;;4918668;28;45732;-73
2022/10/22 07:31:07;;;;;;;;;2.00;2.00;;;;;;;;4897636;28;45535;-74
2022/10/22 07:33:32;;;;;;;;;2.25;1.00;;;;;;;;4904678;28;45683;-74
2022/10/22 07:35:58;;;;;;;;;3.50;2.75;;;;;;;;4912636;28;45311;-72
2022/10/22 07:38:24;;;;;;;;;1.50;1.25;;;;;;;;4923478;28;46307;-72
2022/10/22 07:40:49;;;;;;;;;3.00;2.00;;;;;;;;4896265;28;45641;-73
2022/10/22 07:43:14;;;;;;;;;3.00;1.25;;;;;;;;4910250;28;45815;-73
2022/10/22 07:45:40;;;;;;;;;3.25;2.25;;;;;;;;4905948;28;45316;-72
2022/10/22 07:48:05;;;;;;;;;4.25;3.00;;;;;;;;4904863;28;45772;-72
2022/10/22 07:50:30;;;;;;;;;2.50;2.00;;;;;;;;4909526;28;45545;-73
2022/10/22 07:52:56;;;;;;;;;3.00;1.00;;;;;;;;4994730;28;45569;-75
2022/10/22 07:55:21;;;;;;;;;5.00;2.00;;;;;;;;4896479;28;45915;-72
2022/10/22 07:57:46;;;;;;;;;2.50;2.50;;;;;;;;4905791;28;46302;-73
2022/10/22 08:00:12;;;;;;;;;5.00;1.50;;;;;;;;4901002;28;45804;-73
2022/10/22 08:02:37;;;;;;;;;3.25;2.25;;;;;;;;4912380;28;45432;-72
2022/10/22 08:05:03;;;;;;;;;1.75;1.75;;;;;;;;4912774;28;45467;-73
2022/10/22 08:07:28;;;;;;;;;3.00;2.00;;;;;;;;4910392;28;46438;-73
2022/10/22 08:09:53;;;;;;;;;3.00;2.75;;;;;;;;4913797;28;45936;-75
2022/10/22 08:12:19;;;;;;;;;4.25;2.00;;;;;;;;4913512;28;45454;-72
2022/10/22 08:14:44;;;;;;;;;3.00;1.00;;;;;;;;5000404;28;46799;-74
2022/10/22 08:17:09;;;;;;;;;3.75;2.50;;;;;;;;4904993;28;46771;-72
2022/10/22 08:19:34;;;;;;;;;1.25;1.25;;;;;;;;4898593;28;45629;-75
2022/10/22 08:22:00;;;;;;;;;1.75;1.75;;;;;;;;4914639;28;45861;-73
2022/10/22 08:24:25;;;;;;;;;2.25;2.25;;;;;;;;4911708;28;45759;-72
2022/10/22 08:26:53;;;;;;;;;0.50;0.50;;;;;;;;4907767;28;46910;-72
2022/10/22 08:29:20;;;;;;;;;3.75;3.75;;;;;;;;4901501;28;46257;-72
2022/10/22 08:31:45;;;;;;;;;4.50;2.00;;;;;;;;4907727;28;45874;-73
2022/10/22 08:34:11;;;;;;;;;3.00;2.00;;;;;;;;4911229;28;45729;-73
2022/10/22 08:36:36;;;;;;;;;1.50;1.50;;;;;;;;4906056;28;45725;-74
2022/10/22 08:39:01;;;;;;;;;5.25;2.00;;;;;;;;4917281;28;45863;-73
2022/10/22 08:41:26;;;;;;;;;2.75;2.50;;;;;;;;4896271;28;45695;-71
2022/10/22 08:43:58;;;;;;;;;2.25;1.00;;;;;;;;4929343;28;45813;-73
2022/10/22 08:46:23;;;;;;;;;4.00;2.00;;;;;;;;4971081;28;46549;-73
2022/10/22 08:48:50;;;;;;;;;1.00;1.00;;;;;;;;4939707;28;45969;-73
2022/10/22 08:51:19;;;;;;;;;1.00;1.00;;;;;;;;4906912;28;46147;-74
2022/10/22 08:54:07;;;;;;;;;3.00;1.00;;;;;;;;4911270;28;45907;-74
2022/10/22 08:56:35;;;;;;;;;2.00;2.00;;;;;;;;4952895;28;46293;-73
2022/10/22 08:59:15;;;;;;;;;3.00;0.00;;;;;;;;4894798;28;45534;-74
2022/10/22 09:01:44;;;;;;;;;2.00;2.00;;;;;;;;4917296;28;45562;-76
2022/10/22 09:04:24;;;;;;;;;0.50;0.50;;;;;;;;4905165;28;45834;-75
2022/10/22 09:06:49;;;;;;;;;3.25;1.25;;;;;;;;4910508;28;45644;-75
2022/10/22 09:09:15;;;;;;;;;2.00;0.00;;;;;;;;4910781;28;45348;-72
2022/10/22 09:11:42;;;;;;;;;3.75;2.00;;;;;;;;4900452;28;45709;-72
2022/10/22 09:14:12;;;;;;;;;1.50;1.50;;;;;;;;4905218;28;47226;-74
2022/10/22 09:16:42;;;;;;;;;3.25;2.00;;;;;;;;4905366;28;46927;-74
2022/10/22 09:19:07;;;;;;;;;1.75;1.75;;;;;;;;4910821;28;45738;-73
2022/10/22 09:21:39;;;;;;;;;3.00;1.75;;;;;;;;4913725;28;45569;-75
2022/10/22 09:24:04;;;;;;;;;1.00;1.00;;;;;;;;4906107;28;45769;-74
2022/10/22 09:26:32;;;;;;;;;1.25;1.25;;;;;;;;4904460;28;46214;-74
2022/10/22 09:28:59;;;;;;;;;2.00;2.00;;;;;;;;4896560;28;45671;-73
2022/10/22 09:31:26;;;;;;;;;3.00;1.75;;;;;;;;4903109;28;45475;-73
2022/10/22 09:33:51;;;;;;;;;2.25;1.00;;;;;;;;4898432;28;45278;-73
2022/10/22 09:36:17;;;;;;;;;1.00;1.00;;;;;;;;4903421;28;45770;-72
2022/10/22 09:38:48;;;;;;;;;2.80;2.00;;;;;;;;4945377;28;45827;-73
2022/10/22 09:41:14;;;;;;;;;1.00;1.00;;;;;;;;4899492;28;45512;-72
2022/10/22 09:43:39;;;;;;;;;3.75;1.25;;;;;;;;4904230;28;45564;-73
2022/10/22 09:46:06;;;;;;;;;0.75;0.50;;;;;;;;4910983;28;47194;-71
2022/10/22 09:48:33;;;;;;;;;0.80;0.00;;;;;;;;4898383;28;45773;-74
2022/10/22 09:51:04;;;;;;;;;1.00;1.00;;;;;;;;4893156;28;45494;-73
2022/10/22 09:53:34;;;;;;;;;2.00;0.00;;;;;;;;4991630;28;46073;-73
2022/10/22 09:56:09;;;;;;;;;0.80;0.20;;;;;;;;4943310;23;45670;-88
2022/10/22 09:58:49;;;;;;;;;0.80;0.60;;;;;;;;4926537;28;45561;-87
2022/10/22 10:01:21;;;;;;;;;5.25;5.25;;;;;;;;4995794;28;45462;-86
2022/10/22 10:03:48;;;;;;;;;1.75;1.75;;;;;;;;4989407;28;45840;-85
2022/10/22 10:06:16;;;;;;;;;1.25;1.25;;;;;;;;4921355;28;45860;-84
2022/10/22 10:08:42;;;;;;;;;0.00;0.00;;;;;;;;4980912;28;45594;-86
2022/10/22 10:11:40;;;;;;;;;2.00;1.00;;;;;;;;5006198;28;45443;-84
2022/10/22 10:17:37;;;;;;;;;7.25;2.25;;;;;;;;4964494;28;45188;-84
2022/10/22 10:23:27;;;;;;;;;2.50;1.25;;;;;;;;4935956;28;44822;-85
2022/10/22 10:26:15;;;;;;;;;3.00;2.00;;;;;;;;4922491;28;45968;-85
2022/10/22 10:29:00;;;;;;;;;1.00;1.00;;;;;;;;4946484;28;46098;-83
2022/10/22 10:34:35;;;;;;;;;2.75;1.50;;;;;;;;5029260;28;45495;-72
2022/10/22 10:37:14;;;;;;;;;2.25;0.00;;;;;;;;5030148;28;45494;-74
2022/10/22 10:39:54;;;;;;;;;2.50;1.50;;;;;;;;5012757;28;46830;-74
2022/10/22 10:42:22;;;;;;;;;20.75;16.50;;;;;;;;5022096;28;44810;-73
2022/10/22 10:44:51;;;;;;;;;3.25;3.25;;;;;;;;5026881;28;45045;-73
2022/10/22 10:47:28;;;;;;;;;2.00;2.00;;;;;;;;5029651;28;45355;-73
2022/10/22 10:49:57;;;;;;;;;3.50;2.50;;;;;;;;5031458;28;45609;-74
2022/10/22 10:52:39;;;;;;;;;1.60;0.20;;;;;;;;5020507;28;45378;-74
2022/10/22 10:55:04;;;;;;;;;2.00;2.00;;;;;;;;4992045;28;45707;-75
2022/10/22 10:57:48;;;;;;;;;1.25;1.00;;;;;;;;5013274;28;45720;-74
2022/10/22 11:00:22;;;;;;;;;2.75;1.25;;;;;;;;5010761;28;45739;-75
2022/10/22 11:03:26;;;;;;;;;1.00;0.80;;;;;;;;5014462;28;45453;-73
2022/10/22 11:05:53;;;;;;;;;3.00;1.00;;;;;;;;4980091;28;45701;-74
2022/10/22 11:08:18;;;;;;;;;4.25;4.25;;;;;;;;4972950;28;45591;-74
2022/10/22 11:10:52;;;;;;;;;2.50;2.50;;;;;;;;4992082;28;46232;-74
2022/10/22 11:13:21;;;;;;;;;1.00;1.00;;;;;;;;5002532;28;45734;-75
2022/10/22 11:15:54;;;;;;;;;2.75;2.00;;;;;;;;5015184;28;45684;-73
2022/10/22 11:18:26;;;;;;;;;1.00;1.00;;;;;;;;5015255;28;45450;-73
2022/10/22 11:21:01;;;;;;;;;0.00;0.00;;;;;;;;5014437;28;46258;-74
2022/10/22 11:23:29;;;;;;;;;1.25;0.00;;;;;;;;5014554;28;45572;-75
2022/10/22 11:25:54;;;;;;;;;2.50;2.50;;;;;;;;5000952;28;45500;-74
2022/10/22 11:28:23;;;;;;;;;3.00;3.00;;;;;;;;5015112;28;45385;-74
2022/10/22 11:30:54;;;;;;;;;6.00;3.25;;;;;;;;5015174;28;45457;-73
2022/10/22 11:33:21;;;;;;;;;1.00;1.00;;;;;;;;5015529;28;45802;-74
2022/10/22 11:35:47;;;;;;;;;1.00;0.75;;;;;;;;5015233;28;45327;-72
2022/10/22 11:38:17;;;;;;;;;0.50;0.50;;;;;;;;5001883;28;45652;-71
2022/10/22 11:40:45;;;;;;;;;3.00;1.00;;;;;;;;5013321;28;46123;-74
2022/10/22 11:43:24;;;;;;;;;3.00;0.25;;;;;;;;4997355;28;45705;-75
2022/10/22 11:45:55;;;;;;;;;3.50;0.00;;;;;;;;4997603;28;45688;-71
2022/10/22 11:48:25;;;;;;;;;3.75;1.50;;;;;;;;5008133;28;45998;-70
2022/10/22 11:50:55;;;;;;;;;2.75;0.00;;;;;;;;5008595;28;45381;-71
2022/10/22 11:53:20;;;;;;;;;1.00;1.00;;;;;;;;5011673;28;45628;-73
2022/10/22 11:55:47;;;;;;;;;1.25;0.25;;;;;;;;5007856;28;45473;-71
2022/10/22 11:58:27;;;;;;;;;3.00;1.00;;;;;;;;5013590;28;45326;-70
2022/10/22 12:01:08;;;;;;;;;1.25;1.00;;;;;;;;5013838;28;45675;-70
2022/10/22 12:03:33;;;;;;;;;0.50;0.00;;;;;;;;5013789;28;45669;-71
2022/10/22 12:06:11;;;;;;;;;1.00;1.00;;;;;;;;5014352;28;45420;-71
2022/10/22 12:08:44;;;;;;;;;1.00;0.00;;;;;;;;5014205;28;45527;-71
2022/10/22 12:11:09;;;;;;;;;2.00;1.00;;;;;;;;5013858;28;45747;-72
2022/10/22 12:13:57;;;;;;;;;1.50;1.00;;;;;;;;5014190;28;45304;-71
2022/10/22 12:16:23;;;;;;;;;1.00;1.00;;;;;;;;5013897;28;45382;-70
2022/10/22 12:18:48;;;;;;;;;0.75;0.25;;;;;;;;5014051;28;45481;-72
2022/10/22 12:21:15;;;;;;;;;0.00;0.00;;;;;;;;5013717;28;46352;-72
2022/10/22 12:23:40;;;;;;;;;0.00;0.00;;;;;;;;4996508;28;45809;-72
2022/10/22 12:26:20;;;;;;;;;0.50;0.50;;;;;;;;4996033;28;45703;-71
2022/10/22 12:28:45;;;;;;;;;1.50;1.00;;;;;;;;5013640;28;45585;-71
2022/10/22 12:31:15;;;;;;;;;0.75;0.00;;;;;;;;5013830;28;45643;-72
2022/10/22 12:33:40;;;;;;;;;1.50;1.00;;;;;;;;5013802;28;45931;-69
2022/10/22 12:36:05;;;;;;;;;3.00;1.00;;;;;;;;5014616;28;45597;-70
2022/10/22 12:38:31;;;;;;;;;2.00;0.75;;;;;;;;4995941;28;45922;-70
2022/10/22 12:40:56;;;;;;;;;1.00;0.00;;;;;;;;5013790;28;46113;-71
2022/10/22 12:43:26;;;;;;;;;0.00;0.00;;;;;;;;5013198;28;45530;-69
2022/10/22 12:45:52;;;;;;;;;0.50;0.50;;;;;;;;5005322;28;45369;-71
2022/10/22 12:48:29;;;;;;;;;3.75;0.00;;;;;;;;5013321;28;45378;-71
2022/10/22 12:50:57;;;;;;;;;0.00;0.00;;;;;;;;5013333;28;47208;-72
2022/10/22 12:53:38;;;;;;;;;2.00;0.00;;;;;;;;5013727;28;45701;-70
2022/10/22 12:56:04;;;;;;;;;1.00;1.00;;;;;;;;5013293;28;45386;-72
2022/10/22 12:58:38;;;;;;;;;3.00;0.75;;;;;;;;4995750;28;45303;-70
2022/10/22 13:01:03;;;;;;;;;2.00;1.00;;;;;;;;5013539;28;46330;-73
2022/10/22 13:03:33;;;;;;;;;0.75;0.75;;;;;;;;5013890;28;45800;-71
2022/10/22 13:06:22;;;;;;;;;0.00;0.00;;;;;;;;5012674;28;45881;-71
2022/10/22 13:09:01;;;;;;;;;1.00;0.00;;;;;;;;5004578;28;45481;-70
2022/10/22 13:11:30;;;;;;;;;2.00;1.00;;;;;;;;5008054;28;45479;-72
2022/10/22 13:14:14;;;;;;;;;0.25;0.25;;;;;;;;5009390;28;45460;-70
2022/10/22 13:16:39;;;;;;;;;2.00;2.00;;;;;;;;4995869;28;45811;-71
2022/10/22 13:19:05;;;;;;;;;2.25;0.25;;;;;;;;5009989;28;45550;-71
2022/10/22 13:21:36;;;;;;;;;0.50;0.50;;;;;;;;5012699;28;45497;-72
2022/10/22 13:24:17;;;;;;;;;1.00;0.00;;;;;;;;5008977;28;45461;-71
2022/10/22 13:26:48;;;;;;;;;0.00;0.00;;;;;;;;5007208;28;45702;-70
2022/10/22 13:29:16;;;;;;;;;3.00;0.00;;;;;;;;5010289;28;45308;-72
2022/10/22 13:31:45;;;;;;;;;0.50;0.00;;;;;;;;5012827;28;45630;-71
2022/10/22 13:34:14;;;;;;;;;1.50;1.00;;;;;;;;5012702;28;45481;-71
2022/10/22 13:36:39;;;;;;;;;3.25;1.75;;;;;;;;5014164;28;45927;-71
2022/10/22 13:39:06;;;;;;;;;4.25;2.25;;;;;;;;5011246;28;45521;-70
2022/10/22 13:41:37;;;;;;;;;1.75;1.75;;;;;;;;5001907;28;46089;-71
2022/10/22 13:44:02;;;;;;;;;0.50;0.50;;;;;;;;4988100;28;45340;-72
2022/10/22 13:46:28;;;;;;;;;0.00;0.00;;;;;;;;5009115;28;45737;-72
2022/10/22 13:48:54;;;;;;;;;0.00;0.00;;;;;;;;5004461;28;45443;-72
2022/10/22 13:51:20;;;;;;;;;0.00;0.00;;;;;;;;5008085;28;46808;-70
2022/10/22 13:53:46;;;;;;;;;0.00;0.00;;;;;;;;5009554;28;45415;-73
2022/10/22 13:56:12;;;;;;;;;1.75;0.75;;;;;;;;4981473;28;45652;-73
2022/10/22 13:58:38;;;;;;;;;0.50;0.00;;;;;;;;5003521;28;45684;-72
2022/10/22 14:01:07;;;;;;;;;0.25;0.00;;;;;;;;4983788;28;47167;-72
2022/10/22 14:03:33;;;;;;;;;1.00;1.00;;;;;;;;4992130;28;45352;-73
2022/10/22 14:05:59;;;;;;;;;3.00;0.00;;;;;;;;5005205;28;45463;-71
2022/10/22 14:08:25;;;;;;;;;0.00;0.00;;;;;;;;5010977;28;45362;-72
2022/10/22 14:10:50;;;;;;;;;0.25;0.00;;;;;;;;5010736;28;45691;-72
2022/10/22 14:13:16;;;;;;;;;0.00;0.00;;;;;;;;5011223;28;45849;-72
2022/10/22 14:15:42;;;;;;;;;1.00;0.00;;;;;;;;5011322;28;45523;-71
2022/10/22 14:18:11;;;;;;;;;0.25;0.25;;;;;;;;5011269;28;45765;-72
2022/10/22 14:20:38;;;;;;;;;2.00;0.00;;;;;;;;4993080;28;47433;-71
2022/10/22 14:23:18;;;;;;;;;0.00;0.00;;;;;;;;5005490;28;45331;-74
2022/10/22 14:25:43;;;;;;;;;0.00;0.00;;;;;;;;5006669;28;45720;-71
2022/10/22 14:28:11;;;;;;;;;1.00;0.50;;;;;;;;5011628;28;45462;-75
2022/10/22 14:30:37;;;;;;;;;0.50;0.50;;;;;;;;4993409;28;47533;-73
2022/10/22 14:33:08;;;;;;;;;1.25;0.25;;;;;;;;5010732;28;45559;-73
2022/10/22 14:35:34;;;;;;;;;1.50;0.50;;;;;;;;5011768;28;45774;-72
2022/10/22 14:37:59;;;;;;;;;1.00;1.00;;;;;;;;5011799;28;45397;-71
2022/10/22 14:40:24;;;;;;;;;2.00;0.00;;;;;;;;5011432;28;45736;-71
2022/10/22 14:42:51;;;;;;;;;1.00;0.75;;;;;;;;5011494;28;45397;-72
2022/10/22 14:45:20;;;;;;;;;0.25;0.25;;;;;;;;5012408;28;45379;-73
2022/10/22 14:47:46;;;;;;;;;0.00;0.00;;;;;;;;5012836;28;45370;-72
2022/10/22 14:50:12;;;;;;;;;1.00;1.00;;;;;;;;5012772;28;46109;-72
2022/10/22 14:52:38;;;;;;;;;0.25;0.00;;;;;;;;5012807;28;45838;-72
2022/10/22 14:55:03;;;;;;;;;1.25;1.00;;;;;;;;5012143;28;45340;-72
2022/10/22 14:57:28;;;;;;;;;0.00;0.00;;;;;;;;5012556;28;45437;-71
2022/10/22 14:59:54;;;;;;;;;0.25;0.00;;;;;;;;5012899;28;46554;-65